createdAt,value
2022-09-12T00:00:08.909Z,95146.88
2022-09-12T00:02:35.372Z,95146.34
2022-09-12T00:05:01.941Z,95148.50
2022-09-12T00:07:28.385Z,95147.41
2022-09-12T00:09:54.929Z,95137.19
2022-09-12T00:12:21.376Z,95148.91
2022-09-12T00:14:47.923Z,95149.94
2022-09-12T00:17:14.376Z,95153.41
2022-09-12T00:19:40.809Z,95150.69
2022-09-12T00:22:07.328Z,95147.25
2022-09-12T00:24:33.768Z,95147.34
2022-09-12T00:27:00.294Z,95140.91
2022-09-12T00:29:26.758Z,95140.94
2022-09-12T00:31:53.270Z,95141.19
2022-09-12T00:34:19.759Z,95145.72
2022-09-12T00:36:46.246Z,95137.03
2022-09-12T00:39:15.343Z,95135.88
2022-09-12T00:41:41.882Z,95138.50
2022-09-12T00:44:23.302Z,95130.19
2022-09-12T00:47:10.633Z,95136.16
2022-09-12T00:50:14.206Z,95133.19
2022-09-12T00:52:44.984Z,95129.63
2022-09-12T00:55:32.562Z,95123.16
2022-09-12T00:58:07.160Z,95126.69
2022-09-12T01:00:33.691Z,95121.53
2022-09-12T01:03:11.924Z,95122.84
2022-09-12T01:05:41.248Z,95111.06
2022-09-12T01:08:07.765Z,95118.75
2022-09-12T01:10:38.950Z,95113.91
2022-09-12T01:13:07.678Z,95102.47
2022-09-12T01:15:34.506Z,95112.13
2022-09-12T01:18:35.586Z,95109.78
2022-09-12T01:21:11.057Z,95107.81
2022-09-12T01:24:02.131Z,95107.75
2022-09-12T01:26:37.900Z,95114.09
2022-09-12T01:29:22.441Z,95114.47
2022-09-12T01:31:52.134Z,95098.69
2022-09-12T01:34:44.219Z,95098.22
2022-09-12T01:37:47.780Z,95095.03
2022-09-12T01:40:22.812Z,95106.75
2022-09-12T01:43:08.031Z,95099.75
2022-09-12T01:46:08.375Z,95101.03
2022-09-12T01:48:48.678Z,95101.13
2022-09-12T01:51:22.829Z,95101.88
2022-09-12T01:53:53.219Z,95101.06
2022-09-12T01:56:24.926Z,95094.16
2022-09-12T01:59:18.545Z,95098.63
2022-09-12T02:01:49.882Z,95091.31
2022-09-12T02:04:22.960Z,95099.31
2022-09-12T02:06:53.466Z,95088.38
2022-09-12T02:09:29.337Z,95097.16
2022-09-12T02:11:58.932Z,95091.66
2022-09-12T02:14:31.346Z,95098.63
2022-09-12T02:17:06.516Z,95095.38
2022-09-12T02:19:37.574Z,95101.56
2022-09-12T02:22:05.152Z,95098.56
2022-09-12T02:24:40.669Z,95098.25
2022-09-12T02:27:31.015Z,95098.09
2022-09-12T02:29:57.463Z,95089.84
2022-09-12T02:32:30.424Z,95091.63
2022-09-12T02:35:05.100Z,95094.09
2022-09-12T02:37:42.320Z,95087.44
2022-09-12T02:40:08.986Z,95085.63
2022-09-12T02:42:36.891Z,95081.22
2022-09-12T02:45:03.906Z,95082.16
2022-09-12T02:47:37.743Z,95084.09
2022-09-12T02:50:05.162Z,95081.69
2022-09-12T02:52:31.948Z,95083.03
2022-09-12T02:54:59.591Z,95083.22
2022-09-12T02:57:26.904Z,95087.75
2022-09-12T02:59:56.051Z,95090.47
2022-09-12T03:02:44.453Z,95083.44
2022-09-12T03:05:31.612Z,95087.16
2022-09-12T03:08:13.063Z,95091.69
2022-09-12T03:11:27.238Z,95085.72
2022-09-12T03:14:22.058Z,95091.44
2022-09-12T03:17:05.733Z,95081.59
2022-09-12T03:19:45.503Z,95084.53
2022-09-12T03:22:15.011Z,95087.44
2022-09-12T03:24:49.391Z,95085.06
2022-09-12T03:27:19.230Z,95089.53
2022-09-12T03:29:47.307Z,95079.53
2022-09-12T03:32:14.496Z,95079.59
2022-09-12T03:34:41.049Z,95080.66
2022-09-12T03:37:07.598Z,95078.94
2022-09-12T03:39:34.232Z,95071.50
2022-09-12T03:42:00.754Z,95081.13
2022-09-12T03:44:27.392Z,95074.66
2022-09-12T03:46:53.904Z,95074.47
2022-09-12T03:49:20.360Z,95073.22
2022-09-12T03:51:46.880Z,95082.78
2022-09-12T03:54:13.380Z,95083.31
2022-09-12T03:56:40.077Z,95079.00
2022-09-12T03:59:06.901Z,95074.47
2022-09-12T04:01:34.375Z,95079.47
2022-09-12T04:04:01.170Z,95075.59
2022-09-12T04:06:27.624Z,95074.81
2022-09-12T04:08:54.840Z,95071.72
2022-09-12T04:11:22.281Z,95068.91
2022-09-12T04:13:49.337Z,95075.59
2022-09-12T04:16:17.922Z,95072.94
2022-09-12T04:18:46.496Z,95072.75
2022-09-12T04:21:18.569Z,95073.56
2022-09-12T04:23:45.389Z,95078.59
2022-09-12T04:26:12.349Z,95080.31
2022-09-12T04:28:39.147Z,95077.28
2022-09-12T04:31:08.631Z,95075.84
2022-09-12T04:33:36.406Z,95083.72
2022-09-12T04:36:08.112Z,95085.47
2022-09-12T04:38:35.347Z,95085.81
2022-09-12T04:41:19.279Z,95087.44
2022-09-12T04:43:46.546Z,95085.88
2022-09-12T04:46:14.952Z,95085.81
2022-09-12T04:48:42.043Z,95084.72
2022-09-12T04:51:14.007Z,95085.78
2022-09-12T04:53:41.046Z,95086.31
2022-09-12T04:56:09.329Z,95092.72
2022-09-12T04:58:36.338Z,95089.38
2022-09-12T05:01:14.489Z,95086.72
2022-09-12T05:03:47.293Z,95082.44
2022-09-12T05:06:22.713Z,95085.97
2022-09-12T05:08:49.524Z,95089.22
2022-09-12T05:11:22.709Z,95084.56
2022-09-12T05:13:51.512Z,95085.94
2022-09-12T05:16:18.578Z,95092.13
2022-09-12T05:18:45.870Z,95087.84
2022-09-12T05:21:14.204Z,95087.53
2022-09-12T05:23:41.259Z,95085.22
2022-09-12T05:26:08.322Z,95081.22
2022-09-12T05:28:37.132Z,95091.56
2022-09-12T05:31:11.920Z,95091.06
2022-09-12T05:33:40.334Z,95098.94
2022-09-12T05:36:09.574Z,95096.09
2022-09-12T05:38:36.726Z,95095.75
2022-09-12T05:41:25.200Z,95099.91
2022-09-12T05:43:53.969Z,95111.41
2022-09-12T05:46:22.082Z,95116.69
2022-09-12T05:48:52.484Z,95119.09
2022-09-12T05:51:23.898Z,95105.50
2022-09-12T05:53:52.799Z,95101.84
2022-09-12T05:56:21.932Z,95101.63
2022-09-12T05:58:53.706Z,95108.28
2022-09-12T06:01:20.557Z,95106.50
2022-09-12T06:03:51.625Z,95105.94
2022-09-12T06:06:20.293Z,95114.03
2022-09-12T06:08:49.042Z,95115.34
2022-09-12T06:11:20.581Z,95118.13
2022-09-12T06:13:47.462Z,95118.34
2022-09-12T06:16:16.878Z,95117.50
2022-09-12T06:18:48.477Z,95112.28
2022-09-12T06:21:15.863Z,95119.13
2022-09-12T06:23:42.880Z,95119.22
2022-09-12T06:26:10.507Z,95115.06
2022-09-12T06:28:38.817Z,95109.50
2022-09-12T06:31:14.129Z,95110.31
2022-09-12T06:33:42.911Z,95115.47
2022-09-12T06:36:15.670Z,95111.25
2022-09-12T06:38:42.572Z,95111.28
2022-09-12T06:41:11.276Z,95115.13
2022-09-12T06:43:38.712Z,95115.16
2022-09-12T06:46:05.522Z,95118.50
2022-09-12T06:48:32.268Z,95113.19
2022-09-12T06:51:04.041Z,95113.06
2022-09-12T06:53:32.065Z,95117.63
2022-09-12T06:56:00.171Z,95119.84
2022-09-12T06:58:27.496Z,95121.53
2022-09-12T07:01:01.288Z,95117.81
2022-09-12T07:03:27.950Z,95130.38
2022-09-12T07:05:55.266Z,95127.19
2022-09-12T07:08:21.808Z,95129.25
2022-09-12T07:10:48.658Z,95130.88
2022-09-12T07:13:15.156Z,95131.63
2022-09-12T07:15:41.594Z,95127.06
2022-09-12T07:18:09.786Z,95112.69
2022-09-12T07:20:36.225Z,95113.56
2022-09-12T07:23:02.720Z,95112.38
2022-09-12T07:25:29.185Z,95101.84
2022-09-12T07:27:55.647Z,95104.47
2022-09-12T07:30:22.362Z,95104.63
2022-09-12T07:32:53.367Z,95097.34
2022-09-12T07:35:20.750Z,95098.53
2022-09-12T07:37:47.356Z,95102.72
2022-09-12T07:40:13.961Z,95092.78
2022-09-12T07:42:40.493Z,95098.19
2022-09-12T07:45:07.344Z,95095.50
2022-09-12T07:47:33.905Z,95105.16
2022-09-12T07:50:00.353Z,95094.47
2022-09-12T07:52:26.811Z,95100.25
2022-09-12T07:54:53.757Z,95097.66
2022-09-12T07:57:20.468Z,95095.28
2022-09-12T07:59:52.975Z,95099.44
2022-09-12T08:02:20.650Z,95093.03
2022-09-12T08:04:47.974Z,95093.13
2022-09-12T08:07:17.819Z,95087.91
2022-09-12T08:09:45.029Z,95101.03
2022-09-12T08:12:12.495Z,95098.16
2022-09-12T08:14:39.400Z,95099.63
2022-09-12T08:17:05.992Z,95101.00
2022-09-12T08:19:32.452Z,95102.81
2022-09-12T08:21:59.250Z,95099.75
2022-09-12T08:24:25.698Z,95105.78
2022-09-12T08:26:52.217Z,95105.38
2022-09-12T08:29:18.694Z,95108.06
2022-09-12T08:31:45.681Z,95108.75
2022-09-12T08:34:12.160Z,95118.81
2022-09-12T08:36:38.707Z,95116.31
2022-09-12T08:39:06.868Z,95109.03
2022-09-12T08:42:01.915Z,95117.94
2022-09-12T08:44:52.729Z,95116.94
2022-09-12T08:47:31.528Z,95112.16
2022-09-12T08:50:00.961Z,95117.00
2022-09-12T08:52:39.446Z,95117.00
2022-09-12T08:55:23.816Z,95111.50
2022-09-12T08:57:50.825Z,95133.63
2022-09-12T09:00:18.225Z,95128.94
2022-09-12T09:03:15.829Z,95133.81
2022-09-12T09:05:49.070Z,95127.88
2022-09-12T09:08:54.557Z,95131.06
2022-09-12T09:11:34.645Z,95126.97
2022-09-12T09:14:19.943Z,95132.41
2022-09-12T09:16:49.711Z,95130.88
2022-09-12T09:19:48.896Z,95127.91
2022-09-12T09:22:27.905Z,95129.91
2022-09-12T09:24:59.878Z,95123.53
2022-09-12T09:27:56.612Z,95112.63
2022-09-12T09:30:23.540Z,95117.50
2022-09-12T09:32:56.410Z,95117.91
2022-09-12T09:35:36.249Z,95114.13
2022-09-12T09:38:26.561Z,95117.28
2022-09-12T09:40:58.618Z,95114.13
2022-09-12T09:43:26.338Z,95108.25
2022-09-12T09:45:53.211Z,95117.38
2022-09-12T09:48:43.541Z,95119.16
2022-09-12T09:51:10.150Z,95115.22
2022-09-12T09:53:45.843Z,95118.38
2022-09-12T09:56:28.267Z,95113.53
2022-09-12T09:58:55.508Z,95115.66
2022-09-12T10:01:22.446Z,95107.72
2022-09-12T10:03:53.768Z,95106.31
2022-09-12T10:06:20.133Z,95107.47
2022-09-12T10:08:48.026Z,95103.81
2022-09-12T10:11:20.615Z,95106.25
2022-09-12T10:13:59.339Z,95106.06
2022-09-12T10:16:31.594Z,95101.53
2022-09-12T10:19:03.469Z,95095.38
2022-09-12T10:21:46.038Z,95093.84
2022-09-12T10:24:30.434Z,95084.44
2022-09-12T10:26:58.836Z,95089.00
2022-09-12T10:29:28.223Z,95085.44
2022-09-12T10:31:56.389Z,95088.94
2022-09-12T10:34:25.358Z,95082.59
2022-09-12T10:37:00.741Z,95085.78
2022-09-12T10:39:27.345Z,95085.22
2022-09-12T10:41:53.850Z,95088.16
2022-09-12T10:44:28.872Z,95085.31
2022-09-12T10:46:55.560Z,95079.09
2022-09-12T10:49:27.903Z,95085.41
2022-09-12T10:51:56.000Z,95093.59
2022-09-12T10:54:25.317Z,95088.06
2022-09-12T10:57:30.454Z,95080.00
2022-09-12T10:59:56.865Z,95088.31
2022-09-12T11:02:48.751Z,95079.94
2022-09-12T11:05:37.639Z,95074.22
2022-09-12T11:08:14.610Z,95070.72
2022-09-12T11:10:57.886Z,95066.63
2022-09-12T11:13:43.248Z,95073.72
2022-09-12T11:16:20.541Z,95056.25
2022-09-12T11:19:13.223Z,95066.94
2022-09-12T11:22:23.054Z,95061.13
2022-09-12T11:25:07.480Z,95057.41
2022-09-12T11:27:33.933Z,95062.09
2022-09-12T11:30:11.389Z,95063.16
2022-09-12T11:33:11.852Z,95053.63
2022-09-12T11:35:48.329Z,95050.06
2022-09-12T11:38:34.741Z,95058.75
2022-09-12T11:41:10.193Z,95037.06
2022-09-12T11:43:48.821Z,95047.63
2022-09-12T11:46:31.781Z,95042.75
2022-09-12T11:49:05.184Z,95047.56
2022-09-12T11:51:43.910Z,95046.63
2022-09-12T11:54:22.567Z,95039.25
2022-09-12T11:56:55.344Z,95046.16
2022-09-12T11:59:50.552Z,95041.28
2022-09-12T12:02:26.114Z,95040.34
2022-09-12T12:05:17.055Z,95043.03
2022-09-12T12:07:50.964Z,95031.13
2022-09-12T12:10:29.653Z,95031.63
2022-09-12T12:12:57.586Z,95030.19
2022-09-12T12:15:27.994Z,95030.41
2022-09-12T12:18:07.692Z,95023.28
2022-09-12T12:20:34.794Z,95029.84
2022-09-12T12:23:01.821Z,95024.47
2022-09-12T12:25:51.838Z,95012.91
2022-09-12T12:28:43.092Z,95018.66
2022-09-12T12:31:10.478Z,95009.78
2022-09-12T12:33:36.997Z,95011.25
2022-09-12T12:36:04.891Z,95009.03
2022-09-12T12:38:35.881Z,94992.88
2022-09-12T12:41:17.668Z,95007.25
2022-09-12T12:43:48.908Z,95009.88
2022-09-12T12:46:19.553Z,95003.06
2022-09-12T12:49:00.991Z,95005.03
2022-09-12T12:51:50.066Z,94994.19
2022-09-12T12:54:45.481Z,94989.44
2022-09-12T12:57:32.170Z,94990.94
2022-09-12T13:00:30.162Z,94983.47
2022-09-12T13:03:05.665Z,94987.66
2022-09-12T13:05:43.208Z,94985.94
2022-09-12T13:08:23.181Z,94974.47
2022-09-12T13:10:55.022Z,94987.66
2022-09-12T13:13:26.256Z,94975.69
2022-09-12T13:15:53.262Z,94983.09
2022-09-12T13:18:27.969Z,94975.75
2022-09-12T13:20:55.768Z,94977.91
2022-09-12T13:23:24.392Z,94970.03
2022-09-12T13:25:55.884Z,94958.53
2022-09-12T13:28:23.329Z,94966.63
2022-09-12T13:31:02.104Z,94968.53
2022-09-12T13:33:42.624Z,94957.91
2022-09-12T13:36:27.293Z,94956.84
2022-09-12T13:39:03.654Z,94961.66
2022-09-12T13:42:07.667Z,94957.22
2022-09-12T13:44:42.190Z,94954.09
2022-09-12T13:47:13.454Z,94953.34
2022-09-12T13:49:40.898Z,94949.63
2022-09-12T13:52:10.054Z,94946.16
2022-09-12T13:54:38.261Z,94938.22
2022-09-12T13:57:04.992Z,94937.22
2022-09-12T13:59:40.946Z,94935.81
2022-09-12T14:02:20.808Z,94934.19
2022-09-12T14:04:48.586Z,94924.97
2022-09-12T14:07:25.967Z,94923.72
2022-09-12T14:09:57.216Z,94923.06
2022-09-12T14:12:29.683Z,94916.53
2022-09-12T14:14:56.421Z,94918.97
2022-09-12T14:17:34.381Z,94916.00
2022-09-12T14:20:03.182Z,94914.09
2022-09-12T14:22:29.961Z,94914.94
2022-09-12T14:25:00.147Z,94913.94
2022-09-12T14:27:45.903Z,94913.06
2022-09-12T14:30:22.801Z,94915.44
2022-09-12T14:33:11.062Z,94901.13
2022-09-12T14:36:19.924Z,94907.50
2022-09-12T14:38:50.095Z,94906.03
2022-09-12T14:41:25.005Z,94897.94
2022-09-12T14:44:02.126Z,94893.66
2022-09-12T14:46:37.377Z,94893.34
2022-09-12T14:49:27.232Z,94893.34
2022-09-12T14:51:58.583Z,94894.59
2022-09-12T14:54:28.044Z,94895.38
2022-09-12T14:56:55.674Z,94899.22
2022-09-12T14:59:36.722Z,94890.84
2022-09-12T15:02:21.567Z,94894.94
2022-09-12T15:04:52.428Z,94881.72
2022-09-12T15:07:30.816Z,94892.59
2022-09-12T15:10:02.600Z,94894.66
2022-09-12T15:12:29.175Z,94896.84
2022-09-12T15:15:07.502Z,94891.41
2022-09-12T15:17:33.984Z,94890.16
2022-09-12T15:20:00.428Z,94884.91
2022-09-12T15:22:26.973Z,94888.63
2022-09-12T15:24:53.439Z,94884.50
2022-09-12T15:27:19.962Z,94884.31
2022-09-12T15:29:46.748Z,94881.44
2022-09-12T15:32:22.985Z,94891.81
2022-09-12T15:34:49.500Z,94888.63
2022-09-12T15:37:16.382Z,94885.41
2022-09-12T15:39:42.956Z,94883.22
2022-09-12T15:42:10.651Z,94874.44
2022-09-12T15:44:37.139Z,94873.19
2022-09-12T15:47:03.672Z,94872.41
2022-09-12T15:49:30.244Z,94877.16
2022-09-12T15:51:59.324Z,94866.03
2022-09-12T15:54:25.880Z,94860.13
2022-09-12T15:56:52.395Z,94857.59
2022-09-12T15:59:20.555Z,94871.59
2022-09-12T16:01:47.105Z,94864.44
2022-09-12T16:04:22.462Z,94861.69
2022-09-12T16:06:53.082Z,94862.00
2022-09-12T16:09:19.622Z,94872.38
2022-09-12T16:11:46.486Z,94863.78
2022-09-12T16:14:14.650Z,94867.28
2022-09-12T16:16:41.990Z,94863.28
2022-09-12T16:19:09.245Z,94855.03
2022-09-12T16:21:36.598Z,94854.56
2022-09-12T16:24:04.087Z,94850.56
2022-09-12T16:26:31.296Z,94849.47
2022-09-12T16:28:58.656Z,94848.38
2022-09-12T16:31:26.034Z,94842.78
2022-09-12T16:33:53.655Z,94845.66
2022-09-12T16:36:21.879Z,94841.38
2022-09-12T16:38:51.359Z,94840.56
2022-09-12T16:41:21.418Z,94839.94
2022-09-12T16:43:48.091Z,94831.59
2022-09-12T16:46:16.910Z,94837.00
2022-09-12T16:48:49.545Z,94833.00
2022-09-12T16:51:19.128Z,94828.25
2022-09-12T16:53:45.999Z,94831.81
2022-09-12T16:56:12.649Z,94824.03
2022-09-12T16:58:42.525Z,94818.91
2022-09-12T17:01:19.924Z,94817.31
2022-09-12T17:03:46.973Z,94825.75
2022-09-12T17:06:15.736Z,94821.00
2022-09-12T17:08:44.857Z,94819.97
2022-09-12T17:11:14.006Z,94820.31
2022-09-12T17:14:03.443Z,94822.69
2022-09-12T17:16:28.838Z,94822.78
2022-09-12T17:18:55.455Z,94818.16
2022-09-12T17:21:22.681Z,94823.50
2022-09-12T17:23:49.289Z,94826.16
2022-09-12T17:26:15.903Z,94823.59
2022-09-12T17:28:42.351Z,94826.94
2022-09-12T17:31:10.996Z,94822.25
2022-09-12T17:33:38.033Z,94818.81
2022-09-12T17:36:06.881Z,94829.13
2022-09-12T17:38:33.687Z,94827.00
2022-09-12T17:41:08.147Z,94826.91
2022-09-12T17:43:35.730Z,94829.81
2022-09-12T17:46:02.239Z,94838.13
2022-09-12T17:48:28.908Z,94836.72
2022-09-12T17:50:55.371Z,94841.53
2022-09-12T17:53:22.313Z,94839.16
2022-09-12T17:55:54.235Z,94838.56
2022-09-12T17:58:21.001Z,94837.53
2022-09-12T18:00:47.456Z,94826.81
2022-09-12T18:03:14.894Z,94831.22
2022-09-12T18:05:48.544Z,94830.13
2022-09-12T18:08:15.272Z,94831.81
2022-09-12T18:10:41.728Z,94833.63
2022-09-12T18:13:08.150Z,94832.03
2022-09-12T18:15:34.680Z,94829.63
2022-09-12T18:18:02.195Z,94836.31
2022-09-12T18:20:28.838Z,94840.41
2022-09-12T18:22:55.469Z,94846.88
2022-09-12T18:25:21.989Z,94843.00
2022-09-12T18:27:48.444Z,94840.97
2022-09-12T18:30:21.430Z,94848.34
2022-09-12T18:32:48.230Z,94848.34
2022-09-12T18:35:14.762Z,94849.09
2022-09-12T18:37:41.546Z,94853.78
2022-09-12T18:40:08.386Z,94847.13
2022-09-12T18:42:34.950Z,94858.25
2022-09-12T18:45:01.401Z,94850.47
2022-09-12T18:47:27.848Z,94855.06
2022-09-12T18:49:54.323Z,94860.94
2022-09-12T18:52:20.877Z,94860.03
2022-09-12T18:54:47.363Z,94867.59
2022-09-12T18:57:13.815Z,94866.91
2022-09-12T18:59:40.281Z,94863.06
2022-09-12T19:02:06.801Z,94866.97
2022-09-12T19:04:33.264Z,94864.13
2022-09-12T19:06:59.740Z,94872.19
2022-09-12T19:09:26.231Z,94859.66
2022-09-12T19:11:52.716Z,94875.34
2022-09-12T19:14:22.323Z,94881.91
2022-09-12T19:16:49.861Z,94881.50
2022-09-12T19:19:16.747Z,94875.41
2022-09-12T19:21:43.598Z,94870.91
2022-09-12T19:24:10.702Z,94873.00
2022-09-12T19:26:37.930Z,94870.75
2022-09-12T19:29:04.907Z,94878.75
2022-09-12T19:31:31.950Z,94882.59
2022-09-12T19:34:00.040Z,94877.81
2022-09-12T19:39:13.387Z,94881.63
2022-09-12T19:41:41.053Z,94885.88
2022-09-12T19:44:16.955Z,94879.59
2022-09-12T19:49:48.878Z,94866.41
2022-09-12T19:52:17.509Z,94875.25
2022-09-12T19:54:44.317Z,94880.50
2022-09-12T19:57:10.856Z,94884.13
2022-09-12T19:59:37.290Z,94872.25
2022-09-12T20:02:03.809Z,94887.03
2022-09-12T20:04:31.773Z,94886.28
2022-09-12T20:06:58.216Z,94889.19
2022-09-12T20:09:24.699Z,94897.81
2022-09-12T20:11:51.203Z,94894.84
2022-09-12T20:14:17.638Z,94897.66
2022-09-12T20:16:44.076Z,94893.75
2022-09-12T20:19:10.612Z,94895.88
2022-09-12T20:21:37.433Z,94896.41
2022-09-12T20:24:06.801Z,94900.72
2022-09-12T20:26:33.890Z,94897.91
2022-09-12T20:29:00.729Z,94897.00
2022-09-12T20:31:27.678Z,94899.34
2022-09-12T20:33:54.714Z,94893.69
2022-09-12T20:36:25.974Z,94897.69
2022-09-12T20:38:54.800Z,94891.56
2022-09-12T20:41:21.449Z,94888.66
2022-09-12T20:43:52.336Z,94879.47
2022-09-12T20:46:21.992Z,94881.88
2022-09-12T20:48:49.658Z,94883.63
2022-09-12T20:51:16.183Z,94872.84
2022-09-12T20:53:42.824Z,94879.28
2022-09-12T20:56:09.304Z,94881.38
2022-09-12T20:58:37.541Z,94871.78
2022-09-12T21:01:07.972Z,94869.22
2022-09-12T21:03:38.744Z,94874.03
2022-09-12T21:06:05.994Z,94878.47
2022-09-12T21:08:33.136Z,94880.13
2022-09-12T21:10:59.624Z,94879.84
2022-09-12T21:13:26.127Z,94881.94
2022-09-12T21:16:04.106Z,94877.66
2022-09-12T21:18:31.489Z,94878.28
2022-09-12T21:20:57.997Z,94887.31
2022-09-12T21:23:26.155Z,94890.00
2022-09-12T21:25:52.968Z,94887.09
2022-09-12T21:28:20.422Z,94890.41
2022-09-12T21:30:51.100Z,94880.44
2022-09-12T21:33:18.951Z,94886.88
2022-09-12T21:35:45.762Z,94884.59
2022-09-12T21:38:12.296Z,94874.09
2022-09-12T21:40:38.832Z,94875.84
2022-09-12T21:43:09.215Z,94870.69
2022-09-12T21:45:38.430Z,94877.13
2022-09-12T21:48:05.194Z,94874.72
2022-09-12T21:50:31.770Z,94877.72
2022-09-12T21:52:58.221Z,94884.16
2022-09-12T21:55:27.135Z,94887.44
2022-09-12T21:57:54.462Z,94887.69
2022-09-12T22:00:21.001Z,94883.44
2022-09-12T22:02:48.256Z,94878.38
2022-09-12T22:05:15.040Z,94889.56
2022-09-12T22:07:41.508Z,94889.50
2022-09-12T22:10:08.472Z,94897.56
2022-09-12T22:12:34.928Z,94890.88
2022-09-12T22:15:12.792Z,94890.03
2022-09-12T22:17:47.944Z,94884.00
2022-09-12T22:20:14.453Z,94878.44
2022-09-12T22:22:40.886Z,94885.28
2022-09-12T22:25:07.669Z,94887.72
2022-09-12T22:27:34.169Z,94881.66
2022-09-12T22:30:00.623Z,94874.94
2022-09-12T22:32:27.070Z,94870.41
2022-09-12T22:34:53.618Z,94863.19
2022-09-12T22:37:20.136Z,94867.22
2022-09-12T22:39:46.638Z,94868.28
2022-09-12T22:42:14.050Z,94871.72
2022-09-12T22:44:40.512Z,94867.44
2022-09-12T22:47:07.011Z,94862.00
2022-09-12T22:49:33.495Z,94862.59
2022-09-12T22:52:00.013Z,94852.91
2022-09-12T22:54:26.488Z,94846.81
2022-09-12T22:56:52.934Z,94854.84
2022-09-12T22:59:19.383Z,94869.28
2022-09-12T23:01:45.921Z,94868.88
2022-09-12T23:04:12.630Z,94868.19
2022-09-12T23:06:39.094Z,94864.69
2022-09-12T23:09:05.608Z,94857.22
2022-09-12T23:11:32.058Z,94861.00
2022-09-12T23:13:58.576Z,94857.25
2022-09-12T23:16:26.007Z,94853.47
2022-09-12T23:18:52.624Z,94847.56
2022-09-12T23:21:21.105Z,94847.59
2022-09-12T23:23:47.985Z,94850.75
2022-09-12T23:26:19.914Z,94867.16
2022-09-12T23:28:50.502Z,94864.25
2022-09-12T23:31:17.188Z,94867.78
2022-09-12T23:33:43.675Z,94868.66
2022-09-12T23:36:11.537Z,94870.28
2022-09-12T23:38:38.076Z,94876.88
2022-09-12T23:41:04.825Z,94886.00
2022-09-12T23:43:31.645Z,94891.56
2022-09-12T23:45:58.462Z,94886.72
2022-09-12T23:48:25.541Z,94893.69
2022-09-12T23:50:52.300Z,94894.03
2022-09-12T23:53:18.863Z,94887.38
2022-09-12T23:55:45.368Z,94895.41
2022-09-12T23:58:12.020Z,94888.97
